createdAt,value
2022-09-28T00:01:17.316Z,23.25
2022-09-28T00:03:45.551Z,21.50
2022-09-28T00:06:15.782Z,19.50
2022-09-28T00:08:44.207Z,27.02
2022-09-28T00:11:15.305Z,19.15
2022-09-28T00:13:46.114Z,20.30
2022-09-28T00:16:16.869Z,16.65
2022-09-28T00:18:45.786Z,18.75
2022-09-28T00:21:16.255Z,17.25
2022-09-28T00:23:58.858Z,17.75
2022-09-28T00:26:27.803Z,17.23
2022-09-28T00:28:59.662Z,17.23
2022-09-28T00:31:29.274Z,16.23
2022-09-28T00:33:58.034Z,15.10
2022-09-28T00:36:27.061Z,15.70
2022-09-28T00:38:56.416Z,16.83
2022-09-28T00:41:25.623Z,16.88
2022-09-28T00:43:54.599Z,16.10
2022-09-28T00:46:32.256Z,16.67
2022-09-28T00:49:04.777Z,15.85
2022-09-28T00:51:33.617Z,16.08
2022-09-28T00:54:04.607Z,17.27
2022-09-28T00:56:35.270Z,16.38
2022-09-28T00:59:04.742Z,16.73
2022-09-28T01:01:34.219Z,17.13
2022-09-28T01:04:04.898Z,16.50
2022-09-28T01:06:35.782Z,16.63
2022-09-28T01:09:06.838Z,13.48
2022-09-28T01:11:37.246Z,14.68
2022-09-28T01:14:10.867Z,13.93
2022-09-28T01:16:47.854Z,12.80
2022-09-28T01:20:08.508Z,17.38
2022-09-28T01:23:13.011Z,14.38
2022-09-28T01:25:49.169Z,13.55
2022-09-28T01:28:20.458Z,13.65
2022-09-28T01:30:57.231Z,14.73
2022-09-28T01:33:29.337Z,13.75
2022-09-28T01:36:03.902Z,13.18
2022-09-28T01:38:37.811Z,14.40
2022-09-28T01:41:07.885Z,13.50
2022-09-28T01:43:40.585Z,12.80
2022-09-28T01:46:13.934Z,12.73
2022-09-28T01:48:48.687Z,11.98
2022-09-28T01:51:25.224Z,13.40
2022-09-28T01:54:01.578Z,12.88
2022-09-28T01:56:35.155Z,13.00
2022-09-28T01:59:11.497Z,13.30
2022-09-28T02:01:42.918Z,12.80
2022-09-28T02:04:16.970Z,12.02
2022-09-28T02:06:55.094Z,12.90
2022-09-28T02:09:30.512Z,13.02
2022-09-28T02:12:07.212Z,12.32
2022-09-28T02:14:40.558Z,11.45
2022-09-28T02:17:10.231Z,12.57
2022-09-28T02:19:39.879Z,12.23
2022-09-28T02:22:23.237Z,11.90
2022-09-28T02:24:56.660Z,13.52
2022-09-28T02:27:36.047Z,12.98
2022-09-28T02:30:07.466Z,13.25
2022-09-28T02:32:40.238Z,12.48
2022-09-28T02:35:10.070Z,13.32
2022-09-28T02:37:38.343Z,13.90
2022-09-28T02:40:14.339Z,14.10
2022-09-28T02:42:53.921Z,14.60
2022-09-28T02:45:37.516Z,13.32
2022-09-28T02:48:24.046Z,13.95
2022-09-28T02:51:14.597Z,13.75
2022-09-28T02:54:06.370Z,14.38
2022-09-28T02:56:54.469Z,12.57
2022-09-28T02:59:34.324Z,13.48
2022-09-28T03:02:15.509Z,13.90
2022-09-28T03:04:50.249Z,14.18
2022-09-28T03:07:33.965Z,15.13
2022-09-28T03:10:06.787Z,13.68
2022-09-28T03:12:37.394Z,14.88
2022-09-28T03:15:14.957Z,14.38
2022-09-28T03:17:45.154Z,14.85
2022-09-28T03:20:14.996Z,14.27
2022-09-28T03:22:43.426Z,13.07
2022-09-28T03:25:13.030Z,15.43
2022-09-28T03:27:41.313Z,14.10
2022-09-28T03:30:11.483Z,14.13
2022-09-28T03:32:41.954Z,13.93
2022-09-28T03:35:12.841Z,13.23
2022-09-28T03:37:40.949Z,15.18
2022-09-28T03:40:10.111Z,15.07
2022-09-28T03:42:38.774Z,13.68
2022-09-28T03:45:07.927Z,15.60
2022-09-28T03:47:36.426Z,17.75
2022-09-28T03:50:04.928Z,16.30
2022-09-28T03:52:35.030Z,17.05
2022-09-28T03:55:03.353Z,15.88
2022-09-28T03:57:31.505Z,17.15
2022-09-28T03:59:59.944Z,16.45
2022-09-28T04:02:29.001Z,16.77
2022-09-28T04:04:57.280Z,16.00
2022-09-28T04:07:30.220Z,19.08
2022-09-28T04:10:00.507Z,17.65
2022-09-28T04:12:28.661Z,17.13
2022-09-28T04:14:56.922Z,17.98
2022-09-28T04:17:25.099Z,18.98
2022-09-28T04:19:53.585Z,17.10
2022-09-28T04:22:38.811Z,15.27
2022-09-28T04:25:09.017Z,16.52
2022-09-28T04:27:55.083Z,14.25
2022-09-28T04:30:23.294Z,16.15
2022-09-28T04:32:51.726Z,15.85
2022-09-28T04:35:20.187Z,14.93
2022-09-28T04:37:48.639Z,14.60
2022-09-28T04:40:18.273Z,15.75
2022-09-28T04:42:54.999Z,16.23
2022-09-28T04:45:25.414Z,16.10
2022-09-28T04:47:54.923Z,15.38
2022-09-28T04:50:31.543Z,16.00
2022-09-28T04:53:16.841Z,16.63
2022-09-28T04:55:46.977Z,15.70
2022-09-28T04:58:15.151Z,14.65
2022-09-28T05:00:43.368Z,15.43
2022-09-28T05:03:38.108Z,15.82
2022-09-28T05:06:21.129Z,16.00
2022-09-28T05:08:51.351Z,15.95
2022-09-28T05:11:21.671Z,17.23
2022-09-28T05:13:50.491Z,16.75
2022-09-28T05:16:20.557Z,17.13
2022-09-28T05:19:07.409Z,18.20
2022-09-28T05:21:35.556Z,17.75
2022-09-28T05:24:07.523Z,15.48
2022-09-28T05:26:39.360Z,17.63
2022-09-28T05:29:09.974Z,17.30
2022-09-28T05:31:40.964Z,17.10
2022-09-28T05:34:09.130Z,19.08
2022-09-28T05:36:39.151Z,18.42
2022-09-28T05:39:07.710Z,19.23
2022-09-28T05:41:38.651Z,18.17
2022-09-28T05:44:06.963Z,17.00
2022-09-28T05:46:36.798Z,17.35
2022-09-28T05:49:04.994Z,21.35
2022-09-28T05:51:33.243Z,19.08
2022-09-28T05:54:05.657Z,20.90
2022-09-28T05:56:35.578Z,17.30
2022-09-28T05:59:07.730Z,21.10
2022-09-28T06:01:35.954Z,26.52
2022-09-28T06:04:09.295Z,23.80
2022-09-28T06:06:38.921Z,25.52
2022-09-28T06:09:07.090Z,22.63
2022-09-28T06:11:55.523Z,24.25
2022-09-28T06:14:29.577Z,22.07
2022-09-28T06:16:57.825Z,20.50
2022-09-28T06:19:25.994Z,21.53
2022-09-28T06:22:15.362Z,20.77
2022-09-28T06:24:49.249Z,24.20
2022-09-28T06:27:17.724Z,27.27
2022-09-28T06:29:47.265Z,27.37
2022-09-28T06:32:15.559Z,22.10
2022-09-28T06:34:46.271Z,20.30
2022-09-28T06:37:14.478Z,20.37
2022-09-28T06:39:42.719Z,19.90
2022-09-28T06:42:10.859Z,19.20
2022-09-28T06:45:00.327Z,20.00
2022-09-28T06:47:44.890Z,28.40
2022-09-28T06:50:26.216Z,37.70
2022-09-28T06:53:15.840Z,32.10
2022-09-28T06:56:21.002Z,27.90
2022-09-28T06:58:49.542Z,25.90
2022-09-28T07:01:19.234Z,23.03
2022-09-28T07:03:57.894Z,23.77
2022-09-28T07:06:48.302Z,24.17
2022-09-28T07:09:37.282Z,21.53
2022-09-28T07:12:15.091Z,21.40
2022-09-28T07:14:50.394Z,22.50
2022-09-28T07:17:20.223Z,23.20
2022-09-28T07:19:52.705Z,21.30
2022-09-28T07:22:33.419Z,23.17
2022-09-28T07:25:08.116Z,22.50
2022-09-28T07:28:01.143Z,21.77
2022-09-28T07:30:45.466Z,21.83
2022-09-28T07:33:33.294Z,21.07
2022-09-28T07:36:23.449Z,20.57
2022-09-28T07:38:53.731Z,23.10
2022-09-28T07:41:32.255Z,24.63
2022-09-28T07:44:05.411Z,22.73
2022-09-28T07:46:35.456Z,22.50
2022-09-28T07:49:12.430Z,23.40
2022-09-28T07:51:56.521Z,22.30
2022-09-28T07:54:44.886Z,22.30
2022-09-28T07:57:39.941Z,22.37
2022-09-28T08:00:34.247Z,22.93
2022-09-28T08:03:04.014Z,22.00
2022-09-28T08:05:35.859Z,21.90
2022-09-28T08:08:04.250Z,19.90
2022-09-28T08:10:32.647Z,19.80
2022-09-28T08:13:10.574Z,18.07
2022-09-28T08:16:02.141Z,17.93
2022-09-28T08:18:36.967Z,18.57
2022-09-28T08:21:25.240Z,18.17
2022-09-28T08:23:54.010Z,17.50
2022-09-28T08:26:22.190Z,14.30
2022-09-28T08:28:51.269Z,15.47
2022-09-28T08:31:49.546Z,14.10
2022-09-28T08:34:42.635Z,15.30
2022-09-28T08:37:22.975Z,12.93
2022-09-28T08:40:18.133Z,12.50
2022-09-28T08:43:24.784Z,11.57
2022-09-28T08:46:25.081Z,11.83
2022-09-28T08:49:36.371Z,10.73
2022-09-28T08:52:23.426Z,9.40
2022-09-28T08:55:27.484Z,6.87
2022-09-28T08:58:02.159Z,9.07
2022-09-28T09:00:37.781Z,8.97
2022-09-28T09:03:10.517Z,7.77
2022-09-28T09:05:56.066Z,6.43
2022-09-28T09:08:57.526Z,8.03
2022-09-28T09:11:44.489Z,6.73
2022-09-28T09:14:42.562Z,6.77
2022-09-28T09:17:20.279Z,7.70
2022-09-28T09:20:19.470Z,7.57
2022-09-28T09:23:00.728Z,8.20
2022-09-28T09:25:43.850Z,8.40
2022-09-28T09:28:45.057Z,9.80
2022-09-28T09:31:26.690Z,9.13
2022-09-28T09:34:13.949Z,8.57
2022-09-28T09:37:05.142Z,8.67
2022-09-28T09:40:08.785Z,8.30
2022-09-28T09:43:13.094Z,6.97
2022-09-28T09:46:03.857Z,8.43
2022-09-28T09:48:40.991Z,6.17
2022-09-28T09:51:17.939Z,6.30
2022-09-28T09:53:50.682Z,6.20
2022-09-28T09:56:27.072Z,7.43
2022-09-28T09:59:24.738Z,6.10
2022-09-28T10:02:20.670Z,6.10
2022-09-28T10:04:58.621Z,6.30
2022-09-28T10:07:43.294Z,4.50
2022-09-28T10:10:16.983Z,4.50
2022-09-28T10:12:51.190Z,4.17
2022-09-28T10:15:24.498Z,4.50
2022-09-28T10:18:14.042Z,4.00
2022-09-28T10:21:00.974Z,4.43
2022-09-28T10:23:57.754Z,4.50
2022-09-28T10:26:33.592Z,3.03
2022-09-28T10:29:05.100Z,3.80
2022-09-28T10:31:39.579Z,4.20
2022-09-28T10:34:17.552Z,4.00
2022-09-28T10:36:50.993Z,3.27
2022-09-28T10:39:29.670Z,4.17
2022-09-28T10:42:00.175Z,3.73
2022-09-28T10:44:33.703Z,3.10
2022-09-28T10:47:25.222Z,2.50
2022-09-28T10:49:56.814Z,2.23
2022-09-28T10:52:35.811Z,2.30
2022-09-28T10:55:23.832Z,2.57
2022-09-28T10:57:52.835Z,2.20
2022-09-28T11:00:32.903Z,3.17
2022-09-28T11:03:21.625Z,2.33
2022-09-28T11:06:00.938Z,2.73
2022-09-28T11:08:32.992Z,2.20
2022-09-28T11:11:10.024Z,2.10
2022-09-28T11:13:44.042Z,2.20
2022-09-28T11:16:25.344Z,2.10
2022-09-28T11:18:54.634Z,4.00
2022-09-28T11:21:29.775Z,2.70
2022-09-28T11:24:07.386Z,2.57
2022-09-28T11:26:43.775Z,2.13
2022-09-28T11:29:27.813Z,2.87
2022-09-28T11:32:22.930Z,2.67
2022-09-28T11:35:19.843Z,3.13
2022-09-28T11:38:05.076Z,3.40
2022-09-28T11:41:14.066Z,2.43
2022-09-28T11:43:57.527Z,2.20
2022-09-28T11:46:34.887Z,1.80
2022-09-28T11:49:24.033Z,2.53
2022-09-28T11:51:55.538Z,1.93
2022-09-28T11:54:31.439Z,2.70
2022-09-28T11:57:02.753Z,2.20
2022-09-28T11:59:35.624Z,2.40
2022-09-28T12:02:15.009Z,3.30
2022-09-28T12:04:49.883Z,2.00
2022-09-28T12:07:25.154Z,2.40
2022-09-28T12:10:00.041Z,2.70
2022-09-28T12:12:33.638Z,2.87
2022-09-28T12:15:16.389Z,2.17
2022-09-28T12:17:48.294Z,2.30
2022-09-28T12:20:23.082Z,2.70
2022-09-28T12:23:03.071Z,3.30
2022-09-28T12:25:41.255Z,2.80
2022-09-28T12:28:19.495Z,3.03
2022-09-28T12:30:49.791Z,3.37
2022-09-28T12:33:18.149Z,2.90
2022-09-28T12:36:00.503Z,2.60
2022-09-28T12:38:43.331Z,2.80
2022-09-28T12:41:24.461Z,2.57
2022-09-28T12:44:17.899Z,2.97
2022-09-28T12:47:05.684Z,2.80
2022-09-28T12:50:37.085Z,3.20
2022-09-28T12:53:03.037Z,2.10
2022-09-28T12:55:44.640Z,2.07
2022-09-28T12:58:27.901Z,4.10
2022-09-28T13:01:07.805Z,2.20
2022-09-28T13:03:58.067Z,2.90
2022-09-28T13:06:40.794Z,1.70
2022-09-28T13:09:20.067Z,2.47
2022-09-28T13:12:11.451Z,1.73
2022-09-28T13:15:13.027Z,1.97
2022-09-28T13:17:50.066Z,1.53
2022-09-28T13:20:40.793Z,1.60
2022-09-28T13:23:19.898Z,1.87
2022-09-28T13:25:53.860Z,1.67
2022-09-28T13:28:27.036Z,1.60
2022-09-28T13:33:36.925Z,1.90
2022-09-28T13:36:26.058Z,1.60
2022-09-28T13:38:55.712Z,1.57
2022-09-28T13:41:31.660Z,1.30
2022-09-28T13:44:23.939Z,1.27
2022-09-28T13:47:10.144Z,1.37
2022-09-28T13:49:48.290Z,1.27
2022-09-28T13:52:35.657Z,1.70
2022-09-28T13:55:22.157Z,1.50
2022-09-28T13:57:54.786Z,1.40
2022-09-28T14:00:28.294Z,1.60
2022-09-28T14:03:05.592Z,1.70
2022-09-28T14:05:49.597Z,1.33
2022-09-28T14:08:29.410Z,1.63
2022-09-28T14:10:58.754Z,1.37
2022-09-28T14:14:02.177Z,1.43
2022-09-28T14:16:34.899Z,1.57
2022-09-28T14:19:10.006Z,1.30
2022-09-28T14:22:10.735Z,1.70
2022-09-28T14:24:59.267Z,1.83
2022-09-28T14:28:01.273Z,1.63
2022-09-28T14:30:55.445Z,1.30
2022-09-28T14:33:27.802Z,1.07
2022-09-28T14:36:02.165Z,1.57
2022-09-28T14:38:51.019Z,1.83
2022-09-28T14:41:34.194Z,1.90
2022-09-28T14:44:06.518Z,2.20
2022-09-28T14:46:40.514Z,1.37
2022-09-28T14:49:51.255Z,1.73
2022-09-28T14:52:40.227Z,2.60
2022-09-28T14:55:18.390Z,2.40
2022-09-28T14:57:53.353Z,1.80
2022-09-28T15:00:24.468Z,1.60
2022-09-28T15:02:55.573Z,1.40
2022-09-28T15:05:28.097Z,1.27
2022-09-28T15:07:58.161Z,1.73
2022-09-28T15:10:32.373Z,2.20
2022-09-28T15:13:02.503Z,1.23
2022-09-28T15:15:34.483Z,1.50
2022-09-28T15:18:17.494Z,1.00
2022-09-28T15:20:48.724Z,1.20
2022-09-28T15:23:34.524Z,1.70
2022-09-28T15:26:03.575Z,1.30
2022-09-28T15:28:32.100Z,1.20
2022-09-28T15:31:01.725Z,1.33
2022-09-28T15:33:49.171Z,1.57
2022-09-28T15:36:22.159Z,1.30
2022-09-28T15:38:58.402Z,2.40
2022-09-28T15:41:27.397Z,1.63
2022-09-28T15:44:21.066Z,1.63
2022-09-28T15:46:51.933Z,1.53
2022-09-28T15:49:28.018Z,1.50
2022-09-28T15:51:56.833Z,1.60
2022-09-28T15:54:29.148Z,1.80
2022-09-28T15:56:59.876Z,1.67
2022-09-28T15:59:32.634Z,1.90
2022-09-28T16:02:15.967Z,2.80
2022-09-28T16:04:50.507Z,4.10
2022-09-28T16:07:38.442Z,2.70
2022-09-28T16:10:30.924Z,3.90
2022-09-28T16:13:09.206Z,3.17
2022-09-28T16:15:39.544Z,4.50
2022-09-28T16:18:20.092Z,4.23
2022-09-28T16:20:50.891Z,4.40
2022-09-28T16:23:27.055Z,3.80
2022-09-28T16:26:00.297Z,4.10
2022-09-28T16:28:51.665Z,3.93
2022-09-28T16:31:29.697Z,12.70
2022-09-28T16:34:01.502Z,8.10
2022-09-28T16:36:40.197Z,7.63
2022-09-28T16:39:09.697Z,7.17
2022-09-28T16:41:40.861Z,7.00
2022-09-28T16:44:17.656Z,8.67
2022-09-28T16:46:46.716Z,8.07
2022-09-28T16:49:19.358Z,6.10
2022-09-28T16:51:48.493Z,5.50
2022-09-28T16:54:36.727Z,5.60
2022-09-28T16:57:08.174Z,6.50
2022-09-28T16:59:38.353Z,6.53
2022-09-28T17:02:35.394Z,8.07
2022-09-28T17:05:06.364Z,9.60
2022-09-28T17:07:34.884Z,4.60
2022-09-28T17:10:03.250Z,3.90
2022-09-28T17:12:32.859Z,4.63
2022-09-28T17:15:01.182Z,4.47
2022-09-28T17:17:31.388Z,4.67
2022-09-28T17:19:59.731Z,5.23
2022-09-28T17:22:27.923Z,5.30
2022-09-28T17:24:56.077Z,4.33
2022-09-28T17:27:24.667Z,4.83
2022-09-28T17:29:54.180Z,4.67
2022-09-28T17:32:22.261Z,4.70
2022-09-28T17:35:00.785Z,4.90
2022-09-28T17:37:36.255Z,3.90
2022-09-28T17:40:11.929Z,5.37
2022-09-28T17:42:40.087Z,4.77
2022-09-28T17:45:09.798Z,5.43
2022-09-28T17:47:37.899Z,8.87
2022-09-28T17:50:19.019Z,5.23
2022-09-28T17:52:47.175Z,6.40
2022-09-28T17:55:15.310Z,7.03
2022-09-28T17:57:43.443Z,8.47
2022-09-28T18:00:14.215Z,7.70
2022-09-28T18:02:42.478Z,7.30
2022-09-28T18:05:13.549Z,7.90
2022-09-28T18:07:46.773Z,8.17
2022-09-28T18:10:17.360Z,6.27
2022-09-28T18:12:45.652Z,6.70
2022-09-28T18:15:15.527Z,6.73
2022-09-28T18:17:43.706Z,6.13
2022-09-28T18:20:13.667Z,5.83
2022-09-28T18:22:42.065Z,7.13
2022-09-28T18:25:11.121Z,8.10
2022-09-28T18:27:39.350Z,7.00
2022-09-28T18:30:08.690Z,6.97
2022-09-28T18:32:38.530Z,6.70
2022-09-28T18:35:09.201Z,8.20
2022-09-28T18:37:37.688Z,7.63
2022-09-28T18:40:06.927Z,6.50
2022-09-28T18:42:36.256Z,6.93
2022-09-28T18:45:05.836Z,7.53
2022-09-28T18:47:34.921Z,7.40
2022-09-28T18:50:04.610Z,7.33
2022-09-28T18:52:33.263Z,7.10
2022-09-28T18:55:01.429Z,7.47
2022-09-28T18:57:29.632Z,7.60
2022-09-28T18:59:57.769Z,7.10
2022-09-28T19:02:26.474Z,8.20
2022-09-28T19:04:54.710Z,4.57
2022-09-28T19:07:24.394Z,1.90
2022-09-28T19:09:53.279Z,3.80
2022-09-28T19:12:21.610Z,6.07
2022-09-28T19:14:49.691Z,7.57
2022-09-28T19:17:18.148Z,4.57
2022-09-28T19:19:46.268Z,5.87
2022-09-28T19:22:14.366Z,3.53
2022-09-28T19:24:43.884Z,5.40
2022-09-28T19:27:12.457Z,5.33
2022-09-28T19:29:40.506Z,5.53
2022-09-28T19:32:08.640Z,7.20
2022-09-28T19:34:36.738Z,5.00
2022-09-28T19:37:04.904Z,5.77
2022-09-28T19:39:33.056Z,5.10
2022-09-28T19:42:02.568Z,6.43
2022-09-28T19:44:32.420Z,6.73
2022-09-28T19:47:04.187Z,7.80
2022-09-28T19:49:36.846Z,7.53
2022-09-28T19:52:13.436Z,7.80
2022-09-28T19:54:44.768Z,7.10
2022-09-28T19:57:15.865Z,6.80
2022-09-28T19:59:48.402Z,7.27
2022-09-28T20:02:19.194Z,5.67
2022-09-28T20:04:47.681Z,7.40
2022-09-28T20:07:15.935Z,7.30
2022-09-28T20:09:44.059Z,5.00
2022-09-28T20:12:12.296Z,7.03
2022-09-28T20:14:41.770Z,5.83
2022-09-28T20:17:10.542Z,5.77
2022-09-28T20:19:39.175Z,5.27
2022-09-28T20:22:07.339Z,5.70
2022-09-28T20:24:35.461Z,5.17
2022-09-28T20:27:03.618Z,6.17
2022-09-28T20:29:33.383Z,5.70
2022-09-28T20:32:04.100Z,5.83
2022-09-28T20:34:33.570Z,6.10
2022-09-28T20:37:01.834Z,6.07
2022-09-28T20:39:30.026Z,6.30
2022-09-28T20:41:58.154Z,6.73
2022-09-28T20:44:26.298Z,6.93
2022-09-28T20:46:54.459Z,6.40
2022-09-28T20:49:24.365Z,6.93
2022-09-28T20:51:52.477Z,5.90
2022-09-28T20:54:21.686Z,5.90
2022-09-28T20:56:49.809Z,4.77
2022-09-28T20:59:17.895Z,6.13
2022-09-28T21:01:46.028Z,5.47
2022-09-28T21:04:14.239Z,4.37
2022-09-28T21:06:43.871Z,4.70
2022-09-28T21:09:12.669Z,4.77
2022-09-28T21:11:41.691Z,4.50
2022-09-28T21:14:10.876Z,3.47
2022-09-28T21:16:39.720Z,3.80
2022-09-28T21:19:07.948Z,4.60
2022-09-28T21:21:36.132Z,3.43
2022-09-28T21:24:06.054Z,3.30
2022-09-28T21:26:35.089Z,3.10
2022-09-28T21:29:05.760Z,3.27
2022-09-28T21:31:38.615Z,4.53
2022-09-28T21:34:07.404Z,3.50
2022-09-28T21:36:35.579Z,3.77
2022-09-28T21:39:10.075Z,3.73
2022-09-28T21:41:38.614Z,3.10
2022-09-28T21:44:07.081Z,3.00
2022-09-28T21:46:36.459Z,3.50
2022-09-28T21:49:07.447Z,3.50
2022-09-28T21:51:36.432Z,3.37
2022-09-28T21:54:06.679Z,3.33
2022-09-28T21:56:34.883Z,3.97
2022-09-28T21:59:02.977Z,4.60
2022-09-28T22:01:31.776Z,3.40
2022-09-28T22:04:00.126Z,4.50
2022-09-28T22:06:29.108Z,3.90
2022-09-28T22:08:57.415Z,3.47
2022-09-28T22:11:28.514Z,3.93
2022-09-28T22:13:59.287Z,3.00
2022-09-28T22:16:29.362Z,3.30
2022-09-28T22:18:58.186Z,4.60
2022-09-28T22:21:27.630Z,3.30
2022-09-28T22:24:00.201Z,3.57
2022-09-28T22:26:31.821Z,3.80
2022-09-28T22:29:01.917Z,3.67
2022-09-28T22:31:32.759Z,3.40
2022-09-28T22:34:01.676Z,3.30
2022-09-28T22:36:30.456Z,3.00
2022-09-28T22:38:59.321Z,3.43
2022-09-28T22:41:29.012Z,3.20
2022-09-28T22:43:57.509Z,3.53
2022-09-28T22:46:27.806Z,3.70
2022-09-28T22:48:57.841Z,3.67
2022-09-28T22:51:27.696Z,3.63
2022-09-28T22:53:57.027Z,3.20
2022-09-28T22:56:25.772Z,3.60
2022-09-28T22:58:55.360Z,3.00
2022-09-28T23:01:25.468Z,3.50
2022-09-28T23:03:54.490Z,2.97
2022-09-28T23:06:25.989Z,3.50
2022-09-28T23:08:54.434Z,2.30
2022-09-28T23:11:22.965Z,2.77
2022-09-28T23:13:51.573Z,2.40
2022-09-28T23:16:23.629Z,2.90
2022-09-28T23:18:52.372Z,2.60
2022-09-28T23:21:22.638Z,2.97
2022-09-28T23:23:56.147Z,2.50
2022-09-28T23:26:27.408Z,2.90
2022-09-28T23:28:56.074Z,2.47
2022-09-28T23:31:28.066Z,2.63
2022-09-28T23:33:59.345Z,2.80
2022-09-28T23:36:27.893Z,3.00
2022-09-28T23:38:56.179Z,3.20
2022-09-28T23:41:24.306Z,2.23
2022-09-28T23:43:52.392Z,2.90
2022-09-28T23:46:21.317Z,2.70
2022-09-28T23:48:51.193Z,2.70
2022-09-28T23:51:19.522Z,2.97
2022-09-28T23:53:47.732Z,2.83
2022-09-28T23:56:15.841Z,2.63
2022-09-28T23:58:44.174Z,2.87
